sensor_id;sensor_type;location;lat;lon;timestamp;P1;durP1;ratioP1;P2;durP2;ratioP2
70487;SDS011;57976;48.174;16.370;2023-02-22T06:39:31;8.00;;;2.80;;
70487;SDS011;57976;48.174;16.370;2023-02-22T06:41:37;7.60;;;2.90;;
70487;SDS011;57976;48.174;16.370;2023-02-22T06:43:42;7.20;;;3.00;;
70487;SDS011;57976;48.174;16.370;2023-02-22T06:45:48;6.40;;;2.70;;
70487;SDS011;57976;48.174;16.370;2023-02-22T06:47:53;7.00;;;2.90;;
70487;SDS011;57976;48.174;16.370;2023-02-22T06:49:58;8.40;;;2.70;;
70487;SDS011;57976;48.174;16.370;2023-02-22T06:52:04;7.00;;;2.60;;
70487;SDS011;57976;48.174;16.370;2023-02-22T06:54:11;6.60;;;2.60;;
70487;SDS011;57976;48.174;16.370;2023-02-22T06:56:16;6.10;;;2.40;;
70487;SDS011;57976;48.174;16.370;2023-02-22T06:58:21;5.40;;;2.20;;
70487;SDS011;57976;48.174;16.370;2023-02-22T07:00:26;6.10;;;2.40;;
70487;SDS011;57976;48.174;16.370;2023-02-22T07:02:32;7.40;;;2.90;;
70487;SDS011;57976;48.174;16.370;2023-02-22T07:04:37;5.90;;;2.60;;
70487;SDS011;57976;48.174;16.370;2023-02-22T07:06:45;6.80;;;2.30;;
70487;SDS011;57976;48.174;16.370;2023-02-22T07:08:51;6.40;;;2.60;;
70487;SDS011;57976;48.174;16.370;2023-02-22T07:10:56;6.50;;;2.80;;
70487;SDS011;57976;48.174;16.370;2023-02-22T07:13:01;7.50;;;2.70;;
70487;SDS011;57976;48.174;16.370;2023-02-22T07:15:07;6.20;;;2.30;;
70487;SDS011;57976;48.174;16.370;2023-02-22T07:17:12;7.30;;;3.20;;
70487;SDS011;57976;48.174;16.370;2023-02-22T07:19:17;8.10;;;3.00;;
70487;SDS011;57976;48.174;16.370;2023-02-22T07:21:22;9.40;;;3.40;;
70487;SDS011;57976;48.174;16.370;2023-02-22T07:23:27;7.60;;;3.10;;
70487;SDS011;57976;48.174;16.370;2023-02-22T07:25:31;7.80;;;3.10;;
70487;SDS011;57976;48.174;16.370;2023-02-22T07:27:36;7.50;;;3.20;;
70487;SDS011;57976;48.174;16.370;2023-02-22T07:29:42;8.00;;;3.10;;
70487;SDS011;57976;48.174;16.370;2023-02-22T07:31:47;7.80;;;3.10;;
70487;SDS011;57976;48.174;16.370;2023-02-22T07:33:52;7.70;;;3.00;;
70487;SDS011;57976;48.174;16.370;2023-02-22T07:35:57;6.80;;;3.10;;
70487;SDS011;57976;48.174;16.370;2023-02-22T07:38:02;8.90;;;3.80;;
70487;SDS011;57976;48.174;16.370;2023-02-22T07:40:08;7.30;;;3.60;;
70487;SDS011;57976;48.174;16.370;2023-02-22T07:42:14;8.00;;;3.20;;
70487;SDS011;57976;48.174;16.370;2023-02-22T07:44:20;8.70;;;3.10;;
70487;SDS011;57976;48.174;16.370;2023-02-22T07:46:25;7.60;;;3.10;;
70487;SDS011;57976;48.174;16.370;2023-02-22T07:48:30;8.50;;;3.20;;
70487;SDS011;57976;48.174;16.370;2023-02-22T07:50:35;9.10;;;3.30;;
70487;SDS011;57976;48.174;16.370;2023-02-22T07:52:43;7.10;;;3.00;;
70487;SDS011;57976;48.174;16.370;2023-02-22T07:54:49;6.60;;;2.60;;
70487;SDS011;57976;48.174;16.370;2023-02-22T07:56:54;8.30;;;2.60;;
70487;SDS011;57976;48.174;16.370;2023-02-22T07:58:59;7.70;;;3.20;;
70487;SDS011;57976;48.174;16.370;2023-02-22T08:01:04;9.10;;;3.20;;
70487;SDS011;57976;48.174;16.370;2023-02-22T08:03:09;8.70;;;3.60;;
70487;SDS011;57976;48.174;16.370;2023-02-22T08:05:15;8.70;;;3.20;;
70487;SDS011;57976;48.174;16.370;2023-02-22T08:07:21;9.60;;;3.40;;
70487;SDS011;57976;48.174;16.370;2023-02-22T08:09:26;7.70;;;3.10;;
70487;SDS011;57976;48.174;16.370;2023-02-22T08:11:31;8.30;;;3.20;;
70487;SDS011;57976;48.174;16.370;2023-02-22T08:13:36;8.10;;;3.80;;
70487;SDS011;57976;48.174;16.370;2023-02-22T08:15:42;11.60;;;4.40;;
70487;SDS011;57976;48.174;16.370;2023-02-22T08:17:50;6.30;;;2.90;;
70487;SDS011;57976;48.174;16.370;2023-02-22T08:19:55;6.70;;;2.90;;
70487;SDS011;57976;48.174;16.370;2023-02-22T08:21:59;7.30;;;2.80;;
70487;SDS011;57976;48.174;16.370;2023-02-22T08:24:05;10.00;;;3.10;;
70487;SDS011;57976;48.174;16.370;2023-02-22T08:26:10;7.10;;;2.40;;
70487;SDS011;57976;48.174;16.370;2023-02-22T08:28:16;8.00;;;2.90;;
70487;SDS011;57976;48.174;16.370;2023-02-22T08:30:23;7.00;;;2.70;;
70487;SDS011;57976;48.174;16.370;2023-02-22T08:32:28;7.40;;;3.00;;
70487;SDS011;57976;48.174;16.370;2023-02-22T08:34:33;6.90;;;2.70;;
70487;SDS011;57976;48.174;16.370;2023-02-22T08:36:41;7.60;;;2.60;;
70487;SDS011;57976;48.174;16.370;2023-02-22T08:38:46;7.20;;;2.50;;
70487;SDS011;57976;48.174;16.370;2023-02-22T08:40:51;6.30;;;2.50;;
70487;SDS011;57976;48.174;16.370;2023-02-22T08:42:56;6.40;;;2.70;;
70487;SDS011;57976;48.174;16.370;2023-02-22T08:45:02;7.00;;;2.70;;
70487;SDS011;57976;48.174;16.370;2023-02-22T08:47:07;7.00;;;2.60;;
70487;SDS011;57976;48.174;16.370;2023-02-22T08:49:12;6.70;;;2.70;;
70487;SDS011;57976;48.174;16.370;2023-02-22T08:51:17;7.10;;;2.70;;
70487;SDS011;57976;48.174;16.370;2023-02-22T08:53:22;6.30;;;2.60;;
70487;SDS011;57976;48.174;16.370;2023-02-22T08:55:27;5.90;;;2.50;;
70487;SDS011;57976;48.174;16.370;2023-02-22T08:57:34;6.60;;;2.50;;
70487;SDS011;57976;48.174;16.370;2023-02-22T08:59:39;6.60;;;2.60;;
70487;SDS011;57976;48.174;16.370;2023-02-22T09:01:43;5.60;;;2.20;;
70487;SDS011;57976;48.174;16.370;2023-02-22T09:03:48;6.20;;;2.50;;
70487;SDS011;57976;48.174;16.370;2023-02-22T09:05:53;7.10;;;2.40;;
70487;SDS011;57976;48.174;16.370;2023-02-22T09:07:58;7.40;;;2.70;;
70487;SDS011;57976;48.174;16.370;2023-02-22T09:10:04;5.70;;;2.40;;
70487;SDS011;57976;48.174;16.370;2023-02-22T09:12:10;5.90;;;2.30;;
70487;SDS011;57976;48.174;16.370;2023-02-22T09:14:14;7.40;;;3.40;;
70487;SDS011;57976;48.174;16.370;2023-02-22T09:16:19;6.30;;;2.80;;
70487;SDS011;57976;48.174;16.370;2023-02-22T09:18:25;7.00;;;2.60;;
70487;SDS011;57976;48.174;16.370;2023-02-22T09:20:45;7.40;;;2.70;;
70487;SDS011;57976;48.174;16.370;2023-02-22T09:22:51;6.90;;;2.70;;
70487;SDS011;57976;48.174;16.370;2023-02-22T09:24:56;7.00;;;2.80;;
70487;SDS011;57976;48.174;16.370;2023-02-22T09:27:09;7.20;;;2.90;;
70487;SDS011;57976;48.174;16.370;2023-02-22T09:29:14;7.20;;;2.90;;
70487;SDS011;57976;48.174;16.370;2023-02-22T09:31:19;8.80;;;3.60;;
70487;SDS011;57976;48.174;16.370;2023-02-22T09:33:24;7.00;;;3.50;;
70487;SDS011;57976;48.174;16.370;2023-02-22T09:35:29;8.30;;;3.60;;
70487;SDS011;57976;48.174;16.370;2023-02-22T09:37:34;6.70;;;3.50;;
70487;SDS011;57976;48.174;16.370;2023-02-22T09:39:39;8.60;;;3.20;;
70487;SDS011;57976;48.174;16.370;2023-02-22T09:41:46;7.10;;;3.10;;
70487;SDS011;57976;48.174;16.370;2023-02-22T09:43:59;6.50;;;3.20;;
70487;SDS011;57976;48.174;16.370;2023-02-22T09:46:21;7.20;;;3.20;;
70487;SDS011;57976;48.174;16.370;2023-02-22T09:48:29;7.10;;;3.10;;
70487;SDS011;57976;48.174;16.370;2023-02-22T09:50:38;7.10;;;2.90;;
70487;SDS011;57976;48.174;16.370;2023-02-22T09:52:49;7.30;;;3.00;;
70487;SDS011;57976;48.174;16.370;2023-02-22T09:55:04;7.80;;;3.40;;
70487;SDS011;57976;48.174;16.370;2023-02-22T09:57:15;7.00;;;2.90;;
70487;SDS011;57976;48.174;16.370;2023-02-22T09:59:26;7.90;;;3.30;;
70487;SDS011;57976;48.174;16.370;2023-02-22T10:01:35;6.80;;;2.90;;
70487;SDS011;57976;48.174;16.370;2023-02-22T10:03:47;6.70;;;2.90;;
70487;SDS011;57976;48.174;16.370;2023-02-22T10:05:57;7.10;;;3.00;;
70487;SDS011;57976;48.174;16.370;2023-02-22T10:08:08;7.50;;;3.00;;
70487;SDS011;57976;48.174;16.370;2023-02-22T10:10:15;9.00;;;4.20;;
70487;SDS011;57976;48.174;16.370;2023-02-22T10:12:28;6.80;;;2.90;;
70487;SDS011;57976;48.174;16.370;2023-02-22T10:14:41;8.10;;;3.30;;
70487;SDS011;57976;48.174;16.370;2023-02-22T10:17:02;7.10;;;3.30;;
70487;SDS011;57976;48.174;16.370;2023-02-22T10:19:18;8.30;;;3.40;;
70487;SDS011;57976;48.174;16.370;2023-02-22T10:21:33;6.40;;;3.20;;
70487;SDS011;57976;48.174;16.370;2023-02-22T10:23:50;7.30;;;2.90;;
70487;SDS011;57976;48.174;16.370;2023-02-22T10:26:07;7.60;;;3.00;;
70487;SDS011;57976;48.174;16.370;2023-02-22T10:28:22;8.00;;;2.80;;
70487;SDS011;57976;48.174;16.370;2023-02-22T10:30:31;6.80;;;2.80;;
70487;SDS011;57976;48.174;16.370;2023-02-22T10:32:41;6.80;;;2.60;;
70487;SDS011;57976;48.174;16.370;2023-02-22T10:34:48;6.80;;;2.90;;
70487;SDS011;57976;48.174;16.370;2023-02-22T10:36:56;7.40;;;2.80;;
70487;SDS011;57976;48.174;16.370;2023-02-22T10:39:22;6.90;;;2.70;;
70487;SDS011;57976;48.174;16.370;2023-02-22T10:41:31;6.50;;;2.50;;
70487;SDS011;57976;48.174;16.370;2023-02-22T10:43:40;6.70;;;2.70;;
70487;SDS011;57976;48.174;16.370;2023-02-22T10:45:46;6.70;;;2.70;;
70487;SDS011;57976;48.174;16.370;2023-02-22T10:47:55;7.10;;;2.70;;
70487;SDS011;57976;48.174;16.370;2023-02-22T10:50:01;6.70;;;2.60;;
70487;SDS011;57976;48.174;16.370;2023-02-22T10:52:12;11.00;;;2.70;;
70487;SDS011;57976;48.174;16.370;2023-02-22T10:54:23;7.80;;;2.70;;
70487;SDS011;57976;48.174;16.370;2023-02-22T10:56:30;6.90;;;2.70;;
70487;SDS011;57976;48.174;16.370;2023-02-22T10:58:43;10.40;;;2.70;;
70487;SDS011;57976;48.174;16.370;2023-02-22T11:00:52;6.30;;;2.70;;
70487;SDS011;57976;48.174;16.370;2023-02-22T11:02:57;6.20;;;2.80;;
70487;SDS011;57976;48.174;16.370;2023-02-22T11:05:04;7.20;;;2.80;;
70487;SDS011;57976;48.174;16.370;2023-02-22T11:07:28;6.40;;;2.60;;
70487;SDS011;57976;48.174;16.370;2023-02-22T11:09:44;6.10;;;2.80;;
70487;SDS011;57976;48.174;16.370;2023-02-22T11:12:05;8.20;;;2.50;;
70487;SDS011;57976;48.174;16.370;2023-02-22T11:14:12;11.80;;;5.20;;
70487;SDS011;57976;48.174;16.370;2023-02-22T11:16:30;8.40;;;3.50;;
70487;SDS011;57976;48.174;16.370;2023-02-22T11:18:36;10.40;;;5.00;;
70487;SDS011;57976;48.174;16.370;2023-02-22T11:20:41;21.80;;;12.40;;
70487;SDS011;57976;48.174;16.370;2023-02-22T11:22:46;13.20;;;5.90;;
70487;SDS011;57976;48.174;16.370;2023-02-22T11:24:55;24.10;;;14.40;;
70487;SDS011;57976;48.174;16.370;2023-02-22T11:27:03;10.90;;;5.00;;
70487;SDS011;57976;48.174;16.370;2023-02-22T11:29:12;8.50;;;3.50;;
70487;SDS011;57976;48.174;16.370;2023-02-22T11:31:24;6.40;;;2.90;;
70487;SDS011;57976;48.174;16.370;2023-02-22T11:33:31;12.70;;;6.50;;
70487;SDS011;57976;48.174;16.370;2023-02-22T11:35:37;12.70;;;6.30;;
70487;SDS011;57976;48.174;16.370;2023-02-22T11:37:51;10.70;;;4.90;;
70487;SDS011;57976;48.174;16.370;2023-02-22T11:40:12;8.20;;;3.30;;
70487;SDS011;57976;48.174;16.370;2023-02-22T11:42:22;7.50;;;3.20;;
70487;SDS011;57976;48.174;16.370;2023-02-22T11:44:29;8.40;;;4.40;;
70487;SDS011;57976;48.174;16.370;2023-02-22T11:46:38;9.30;;;5.30;;
70487;SDS011;57976;48.174;16.370;2023-02-22T11:48:52;13.60;;;4.40;;
70487;SDS011;57976;48.174;16.370;2023-02-22T11:51:08;7.20;;;3.40;;
70487;SDS011;57976;48.174;16.370;2023-02-22T11:53:23;8.70;;;3.90;;
70487;SDS011;57976;48.174;16.370;2023-02-22T11:55:34;8.00;;;3.40;;
70487;SDS011;57976;48.174;16.370;2023-02-22T11:57:49;8.50;;;3.40;;
70487;SDS011;57976;48.174;16.370;2023-02-22T12:00:04;7.00;;;2.90;;
70487;SDS011;57976;48.174;16.370;2023-02-22T12:02:25;8.40;;;3.30;;
70487;SDS011;57976;48.174;16.370;2023-02-22T12:07:32;12.60;;;4.20;;
70487;SDS011;57976;48.174;16.370;2023-02-22T12:09:48;17.00;;;3.60;;
70487;SDS011;57976;48.174;16.370;2023-02-22T12:12:03;6.80;;;3.40;;
70487;SDS011;57976;48.174;16.370;2023-02-22T12:14:23;9.10;;;3.40;;
70487;SDS011;57976;48.174;16.370;2023-02-22T12:16:35;7.20;;;3.40;;
70487;SDS011;57976;48.174;16.370;2023-02-22T12:18:57;7.30;;;3.50;;
70487;SDS011;57976;48.174;16.370;2023-02-22T12:21:11;7.10;;;3.50;;
70487;SDS011;57976;48.174;16.370;2023-02-22T12:23:19;8.30;;;3.80;;
70487;SDS011;57976;48.174;16.370;2023-02-22T12:25:32;9.30;;;3.70;;
70487;SDS011;57976;48.174;16.370;2023-02-22T12:27:39;11.70;;;3.50;;
70487;SDS011;57976;48.174;16.370;2023-02-22T12:29:49;13.10;;;2.80;;
70487;SDS011;57976;48.174;16.370;2023-02-22T12:31:59;11.00;;;3.30;;
70487;SDS011;57976;48.174;16.370;2023-02-22T12:34:07;7.30;;;2.60;;
70487;SDS011;57976;48.174;16.370;2023-02-22T12:36:20;11.10;;;3.70;;
70487;SDS011;57976;48.174;16.370;2023-02-22T12:38:28;8.00;;;3.40;;
70487;SDS011;57976;48.174;16.370;2023-02-22T12:40:38;6.40;;;3.00;;
70487;SDS011;57976;48.174;16.370;2023-02-22T12:42:52;7.50;;;3.00;;
70487;SDS011;57976;48.174;16.370;2023-02-22T12:45:05;7.50;;;3.20;;
70487;SDS011;57976;48.174;16.370;2023-02-22T12:47:15;6.70;;;3.10;;
70487;SDS011;57976;48.174;16.370;2023-02-22T12:49:25;6.10;;;2.80;;
70487;SDS011;57976;48.174;16.370;2023-02-22T12:51:39;7.70;;;3.10;;
70487;SDS011;57976;48.174;16.370;2023-02-22T12:53:53;8.10;;;3.00;;
70487;SDS011;57976;48.174;16.370;2023-02-22T12:56:15;7.20;;;3.40;;
70487;SDS011;57976;48.174;16.370;2023-02-22T12:58:26;7.50;;;2.80;;
70487;SDS011;57976;48.174;16.370;2023-02-22T13:00:38;6.70;;;2.90;;
70487;SDS011;57976;48.174;16.370;2023-02-22T13:02:48;7.60;;;3.10;;
70487;SDS011;57976;48.174;16.370;2023-02-22T13:05:00;7.70;;;3.40;;
70487;SDS011;57976;48.174;16.370;2023-02-22T13:07:14;9.60;;;3.20;;
70487;SDS011;57976;48.174;16.370;2023-02-22T13:09:36;9.10;;;3.00;;
70487;SDS011;57976;48.174;16.370;2023-02-22T13:11:56;8.70;;;2.90;;
70487;SDS011;57976;48.174;16.370;2023-02-22T13:14:19;7.10;;;2.70;;
70487;SDS011;57976;48.174;16.370;2023-02-22T13:16:39;6.80;;;2.90;;
70487;SDS011;57976;48.174;16.370;2023-02-22T13:18:54;6.80;;;3.00;;
70487;SDS011;57976;48.174;16.370;2023-02-22T13:21:03;8.40;;;3.40;;
70487;SDS011;57976;48.174;16.370;2023-02-22T13:23:15;12.40;;;4.10;;
70487;SDS011;57976;48.174;16.370;2023-02-22T13:25:26;9.40;;;3.00;;
70487;SDS011;57976;48.174;16.370;2023-02-22T13:27:39;9.20;;;3.00;;
70487;SDS011;57976;48.174;16.370;2023-02-22T13:29:51;10.30;;;3.10;;
70487;SDS011;57976;48.174;16.370;2023-02-22T13:32:06;8.80;;;2.90;;
70487;SDS011;57976;48.174;16.370;2023-02-22T13:34:24;8.90;;;3.20;;
70487;SDS011;57976;48.174;16.370;2023-02-22T13:36:59;9.50;;;3.50;;
70487;SDS011;57976;48.174;16.370;2023-02-22T13:39:20;5.80;;;2.20;;
70487;SDS011;57976;48.174;16.370;2023-02-22T13:41:43;8.80;;;2.90;;
70487;SDS011;57976;48.174;16.370;2023-02-22T13:49:23;6.90;;;2.60;;
70487;SDS011;57976;48.174;16.370;2023-02-22T13:51:48;8.80;;;3.10;;
70487;SDS011;57976;48.174;16.370;2023-02-22T13:53:57;12.60;;;4.40;;
70487;SDS011;57976;48.174;16.370;2023-02-22T13:56:12;8.30;;;3.00;;
70487;SDS011;57976;48.174;16.370;2023-02-22T13:58:23;7.00;;;2.70;;
70487;SDS011;57976;48.174;16.370;2023-02-22T14:03:00;7.90;;;3.30;;
70487;SDS011;57976;48.174;16.370;2023-02-22T14:07:54;7.40;;;2.70;;
70487;SDS011;57976;48.174;16.370;2023-02-22T14:09:59;9.00;;;3.70;;
70487;SDS011;57976;48.174;16.370;2023-02-22T14:12:04;7.80;;;2.90;;
70487;SDS011;57976;48.174;16.370;2023-02-22T14:14:13;7.20;;;2.50;;
70487;SDS011;57976;48.174;16.370;2023-02-22T14:16:24;9.40;;;3.20;;
70487;SDS011;57976;48.174;16.370;2023-02-22T14:18:30;7.80;;;2.40;;
70487;SDS011;57976;48.174;16.370;2023-02-22T14:20:42;9.00;;;3.00;;
70487;SDS011;57976;48.174;16.370;2023-02-22T14:22:48;6.80;;;2.50;;
70487;SDS011;57976;48.174;16.370;2023-02-22T14:24:55;7.30;;;3.00;;
70487;SDS011;57976;48.174;16.370;2023-02-22T14:27:01;6.70;;;2.60;;
70487;SDS011;57976;48.174;16.370;2023-02-22T14:29:15;5.60;;;2.20;;
70487;SDS011;57976;48.174;16.370;2023-02-22T14:31:21;5.60;;;2.30;;
70487;SDS011;57976;48.174;16.370;2023-02-22T14:36:13;7.70;;;2.40;;
70487;SDS011;57976;48.174;16.370;2023-02-22T14:38:21;7.60;;;3.00;;
70487;SDS011;57976;48.174;16.370;2023-02-22T14:40:28;6.60;;;2.20;;
70487;SDS011;57976;48.174;16.370;2023-02-22T14:42:36;6.00;;;2.70;;
70487;SDS011;57976;48.174;16.370;2023-02-22T14:44:53;7.70;;;3.00;;
70487;SDS011;57976;48.174;16.370;2023-02-22T14:47:03;7.60;;;3.60;;
70487;SDS011;57976;48.174;16.370;2023-02-22T14:49:11;7.40;;;3.30;;
70487;SDS011;57976;48.174;16.370;2023-02-22T14:51:20;9.20;;;3.50;;
70487;SDS011;57976;48.174;16.370;2023-02-22T14:53:30;6.90;;;2.90;;
70487;SDS011;57976;48.174;16.370;2023-02-22T14:55:40;8.40;;;3.40;;
70487;SDS011;57976;48.174;16.370;2023-02-22T14:57:57;7.80;;;3.60;;
70487;SDS011;57976;48.174;16.370;2023-02-22T15:00:11;7.50;;;3.60;;
70487;SDS011;57976;48.174;16.370;2023-02-22T15:02:22;9.60;;;3.80;;
70487;SDS011;57976;48.174;16.370;2023-02-22T15:04:27;11.40;;;5.20;;
70487;SDS011;57976;48.174;16.370;2023-02-22T15:06:33;14.70;;;7.30;;
70487;SDS011;57976;48.174;16.370;2023-02-22T15:08:38;8.60;;;4.10;;
70487;SDS011;57976;48.174;16.370;2023-02-22T15:10:46;7.60;;;3.30;;
70487;SDS011;57976;48.174;16.370;2023-02-22T15:12:54;8.00;;;3.50;;
70487;SDS011;57976;48.174;16.370;2023-02-22T15:15:12;7.90;;;3.40;;
70487;SDS011;57976;48.174;16.370;2023-02-22T15:17:19;7.20;;;3.00;;
70487;SDS011;57976;48.174;16.370;2023-02-22T15:19:27;7.80;;;3.50;;
70487;SDS011;57976;48.174;16.370;2023-02-22T15:21:35;8.90;;;3.60;;
70487;SDS011;57976;48.174;16.370;2023-02-22T15:23:50;7.60;;;3.10;;
70487;SDS011;57976;48.174;16.370;2023-02-22T15:25:57;8.20;;;3.00;;
70487;SDS011;57976;48.174;16.370;2023-02-22T15:28:04;8.00;;;3.00;;
70487;SDS011;57976;48.174;16.370;2023-02-22T15:30:18;8.10;;;2.90;;
70487;SDS011;57976;48.174;16.370;2023-02-22T15:32:30;7.20;;;2.80;;
70487;SDS011;57976;48.174;16.370;2023-02-22T15:34:36;10.40;;;4.50;;
70487;SDS011;57976;48.174;16.370;2023-02-22T15:36:42;8.00;;;3.20;;
70487;SDS011;57976;48.174;16.370;2023-02-22T15:38:54;9.20;;;3.70;;
70487;SDS011;57976;48.174;16.370;2023-02-22T15:41:00;8.30;;;3.30;;
70487;SDS011;57976;48.174;16.370;2023-02-22T15:43:07;7.80;;;3.20;;
70487;SDS011;57976;48.174;16.370;2023-02-22T15:45:23;7.70;;;3.20;;
70487;SDS011;57976;48.174;16.370;2023-02-22T15:47:29;7.10;;;2.80;;
70487;SDS011;57976;48.174;16.370;2023-02-22T15:49:34;7.30;;;2.80;;
70487;SDS011;57976;48.174;16.370;2023-02-22T15:51:39;10.20;;;4.50;;
70487;SDS011;57976;48.174;16.370;2023-02-22T15:53:46;7.70;;;3.00;;
70487;SDS011;57976;48.174;16.370;2023-02-22T15:55:55;7.70;;;2.90;;
70487;SDS011;57976;48.174;16.370;2023-02-22T15:58:08;6.90;;;2.70;;
70487;SDS011;57976;48.174;16.370;2023-02-22T16:00:24;7.20;;;2.90;;
70487;SDS011;57976;48.174;16.370;2023-02-22T16:02:32;7.70;;;3.00;;
70487;SDS011;57976;48.174;16.370;2023-02-22T16:04:39;6.90;;;2.80;;
70487;SDS011;57976;48.174;16.370;2023-02-22T16:07:04;8.00;;;2.90;;
70487;SDS011;57976;48.174;16.370;2023-02-22T16:09:11;8.10;;;3.50;;
70487;SDS011;57976;48.174;16.370;2023-02-22T16:11:21;9.80;;;3.30;;
70487;SDS011;57976;48.174;16.370;2023-02-22T16:13:29;9.30;;;4.10;;
70487;SDS011;57976;48.174;16.370;2023-02-22T16:15:37;10.80;;;4.70;;
70487;SDS011;57976;48.174;16.370;2023-02-22T16:17:41;8.50;;;3.80;;
70487;SDS011;57976;48.174;16.370;2023-02-22T16:22:39;8.30;;;3.70;;
70487;SDS011;57976;48.174;16.370;2023-02-22T16:24:47;10.80;;;5.00;;
70487;SDS011;57976;48.174;16.370;2023-02-22T16:27:03;10.80;;;5.10;;
70487;SDS011;57976;48.174;16.370;2023-02-22T16:29:23;11.60;;;5.00;;
70487;SDS011;57976;48.174;16.370;2023-02-22T16:31:31;9.50;;;4.60;;
70487;SDS011;57976;48.174;16.370;2023-02-22T16:33:41;10.70;;;4.90;;
70487;SDS011;57976;48.174;16.370;2023-02-22T16:35:48;9.20;;;4.50;;
70487;SDS011;57976;48.174;16.370;2023-02-22T16:37:55;9.50;;;4.70;;
70487;SDS011;57976;48.174;16.370;2023-02-22T16:40:03;9.50;;;4.30;;
70487;SDS011;57976;48.174;16.370;2023-02-22T16:42:11;9.20;;;4.30;;
70487;SDS011;57976;48.174;16.370;2023-02-22T16:44:20;10.70;;;4.70;;
70487;SDS011;57976;48.174;16.370;2023-02-22T16:46:26;11.40;;;5.60;;
70487;SDS011;57976;48.174;16.370;2023-02-22T16:48:35;10.80;;;5.50;;
70487;SDS011;57976;48.174;16.370;2023-02-22T16:50:43;10.80;;;5.30;;
70487;SDS011;57976;48.174;16.370;2023-02-22T16:52:48;12.70;;;5.80;;
70487;SDS011;57976;48.174;16.370;2023-02-22T16:55:00;12.90;;;6.30;;
70487;SDS011;57976;48.174;16.370;2023-02-22T16:57:09;10.10;;;4.70;;
70487;SDS011;57976;48.174;16.370;2023-02-22T16:59:21;10.00;;;4.70;;
70487;SDS011;57976;48.174;16.370;2023-02-22T17:01:26;10.80;;;5.30;;
70487;SDS011;57976;48.174;16.370;2023-02-22T17:03:32;10.50;;;4.60;;
70487;SDS011;57976;48.174;16.370;2023-02-22T17:05:39;9.30;;;5.00;;
70487;SDS011;57976;48.174;16.370;2023-02-22T17:07:47;11.10;;;4.70;;
70487;SDS011;57976;48.174;16.370;2023-02-22T17:09:53;10.70;;;4.90;;
70487;SDS011;57976;48.174;16.370;2023-02-22T17:11:58;10.40;;;4.80;;
70487;SDS011;57976;48.174;16.370;2023-02-22T17:14:06;11.80;;;5.40;;
70487;SDS011;57976;48.174;16.370;2023-02-22T17:16:15;12.00;;;5.30;;
70487;SDS011;57976;48.174;16.370;2023-02-22T17:18:24;11.10;;;4.90;;
70487;SDS011;57976;48.174;16.370;2023-02-22T17:20:31;10.40;;;5.00;;
70487;SDS011;57976;48.174;16.370;2023-02-22T17:22:35;11.40;;;5.80;;
70487;SDS011;57976;48.174;16.370;2023-02-22T17:24:45;12.00;;;5.50;;
70487;SDS011;57976;48.174;16.370;2023-02-22T17:26:51;10.90;;;5.70;;
70487;SDS011;57976;48.174;16.370;2023-02-22T17:28:57;11.00;;;5.40;;
70487;SDS011;57976;48.174;16.370;2023-02-22T17:31:02;11.40;;;5.40;;
70487;SDS011;57976;48.174;16.370;2023-02-22T17:33:15;12.90;;;5.80;;
70487;SDS011;57976;48.174;16.370;2023-02-22T17:35:21;10.90;;;5.60;;
70487;SDS011;57976;48.174;16.370;2023-02-22T17:37:26;10.80;;;5.50;;
70487;SDS011;57976;48.174;16.370;2023-02-22T17:39:33;12.50;;;5.70;;
70487;SDS011;57976;48.174;16.370;2023-02-22T17:41:39;12.10;;;6.10;;
70487;SDS011;57976;48.174;16.370;2023-02-22T17:43:44;12.80;;;5.70;;
70487;SDS011;57976;48.174;16.370;2023-02-22T17:48:11;12.40;;;6.10;;
70487;SDS011;57976;48.174;16.370;2023-02-22T17:50:17;12.50;;;6.10;;
70487;SDS011;57976;48.174;16.370;2023-02-22T17:52:24;11.70;;;6.00;;
70487;SDS011;57976;48.174;16.370;2023-02-22T17:54:29;12.80;;;5.90;;
70487;SDS011;57976;48.174;16.370;2023-02-22T17:56:40;11.20;;;5.70;;
70487;SDS011;57976;48.174;16.370;2023-02-22T17:58:46;11.20;;;5.60;;
70487;SDS011;57976;48.174;16.370;2023-02-22T18:00:53;11.50;;;5.90;;
70487;SDS011;57976;48.174;16.370;2023-02-22T18:03:01;12.20;;;5.70;;
70487;SDS011;57976;48.174;16.370;2023-02-22T18:05:11;12.00;;;5.90;;
70487;SDS011;57976;48.174;16.370;2023-02-22T18:07:17;13.20;;;6.30;;
70487;SDS011;57976;48.174;16.370;2023-02-22T18:09:23;12.30;;;6.40;;
70487;SDS011;57976;48.174;16.370;2023-02-22T18:11:29;13.50;;;6.40;;
70487;SDS011;57976;48.174;16.370;2023-02-22T18:13:35;13.00;;;6.40;;
70487;SDS011;57976;48.174;16.370;2023-02-22T18:15:46;12.10;;;6.10;;
70487;SDS011;57976;48.174;16.370;2023-02-22T18:17:53;13.80;;;6.70;;
70487;SDS011;57976;48.174;16.370;2023-02-22T18:19:59;12.90;;;6.50;;
70487;SDS011;57976;48.174;16.370;2023-02-22T18:22:06;13.70;;;6.30;;
70487;SDS011;57976;48.174;16.370;2023-02-22T18:24:13;12.30;;;6.20;;
70487;SDS011;57976;48.174;16.370;2023-02-22T18:26:20;11.90;;;6.40;;
70487;SDS011;57976;48.174;16.370;2023-02-22T18:28:29;11.70;;;6.30;;
70487;SDS011;57976;48.174;16.370;2023-02-22T18:30:36;13.00;;;6.10;;
70487;SDS011;57976;48.174;16.370;2023-02-22T18:32:42;11.70;;;5.90;;
70487;SDS011;57976;48.174;16.370;2023-02-22T18:34:53;11.90;;;5.90;;
70487;SDS011;57976;48.174;16.370;2023-02-22T18:37:00;13.00;;;6.40;;
70487;SDS011;57976;48.174;16.370;2023-02-22T18:39:08;12.10;;;6.30;;
70487;SDS011;57976;48.174;16.370;2023-02-22T18:41:17;13.10;;;6.70;;
70487;SDS011;57976;48.174;16.370;2023-02-22T18:43:23;13.50;;;6.90;;
70487;SDS011;57976;48.174;16.370;2023-02-22T18:45:30;14.70;;;6.80;;
70487;SDS011;57976;48.174;16.370;2023-02-22T18:47:40;15.20;;;7.20;;
70487;SDS011;57976;48.174;16.370;2023-02-22T18:49:48;15.50;;;7.80;;
70487;SDS011;57976;48.174;16.370;2023-02-22T18:51:54;14.70;;;7.60;;
70487;SDS011;57976;48.174;16.370;2023-02-22T18:54:02;14.30;;;7.90;;
70487;SDS011;57976;48.174;16.370;2023-02-22T18:56:14;14.60;;;7.50;;
70487;SDS011;57976;48.174;16.370;2023-02-22T18:58:22;13.70;;;7.20;;
70487;SDS011;57976;48.174;16.370;2023-02-22T19:00:32;13.70;;;7.20;;
70487;SDS011;57976;48.174;16.370;2023-02-22T19:02:40;13.80;;;6.90;;
70487;SDS011;57976;48.174;16.370;2023-02-22T19:04:47;13.90;;;7.20;;
70487;SDS011;57976;48.174;16.370;2023-02-22T19:06:54;15.10;;;7.80;;
70487;SDS011;57976;48.174;16.370;2023-02-22T19:09:01;15.20;;;8.00;;
70487;SDS011;57976;48.174;16.370;2023-02-22T19:11:11;13.90;;;7.70;;
70487;SDS011;57976;48.174;16.370;2023-02-22T19:13:22;15.10;;;7.40;;
70487;SDS011;57976;48.174;16.370;2023-02-22T19:15:32;14.40;;;7.60;;
70487;SDS011;57976;48.174;16.370;2023-02-22T19:17:39;13.50;;;7.10;;
70487;SDS011;57976;48.174;16.370;2023-02-22T19:19:47;16.20;;;8.20;;
70487;SDS011;57976;48.174;16.370;2023-02-22T19:21:54;17.70;;;8.70;;
70487;SDS011;57976;48.174;16.370;2023-02-22T19:24:00;15.80;;;9.00;;
70487;SDS011;57976;48.174;16.370;2023-02-22T19:26:11;15.50;;;8.70;;
70487;SDS011;57976;48.174;16.370;2023-02-22T19:28:20;16.30;;;9.00;;
70487;SDS011;57976;48.174;16.370;2023-02-22T19:30:27;16.60;;;8.80;;
70487;SDS011;57976;48.174;16.370;2023-02-22T19:32:35;19.50;;;10.20;;
70487;SDS011;57976;48.174;16.370;2023-02-22T19:34:43;19.00;;;9.70;;
70487;SDS011;57976;48.174;16.370;2023-02-22T19:36:54;16.90;;;9.00;;
70487;SDS011;57976;48.174;16.370;2023-02-22T19:39:07;15.50;;;7.80;;
70487;SDS011;57976;48.174;16.370;2023-02-22T19:41:17;16.90;;;8.90;;
70487;SDS011;57976;48.174;16.370;2023-02-22T19:43:26;16.60;;;8.90;;